Time;durP1;ratioP1;P1;durP2;ratioP2;P2;SDS_P1;SDS_P2;PMS_P1;PMS_P2;Temp;Humidity;BMP_temperature;BMP_pressure;BME280_temperature;BME280_humidity;BME280_pressure;Samples;Min_cycle;Max_cycle;Signal;HPM_P1;HPM_P2
2021/10/22 00:02:24;;;;;;;13.60;9.40;;;;;;;7.48;73.24;94971.78;5129061;27;20046;-73
2021/10/22 00:04:49;;;;;;;12.68;8.35;;;;;;;7.55;73.35;94978.22;5132079;27;20072;-72
2021/10/22 00:07:16;;;;;;;12.38;8.57;;;;;;;7.48;73.12;94961.44;5130530;27;20043;-72
2021/10/22 00:09:41;;;;;;;11.48;7.65;;;;;;;7.51;72.80;94976.75;5125715;27;20023;-73
2021/10/22 00:12:07;;;;;;;13.60;9.07;;;;;;;7.50;72.94;94977.69;5110296;28;20089;-73
2021/10/22 00:14:32;;;;;;;12.20;8.65;;;;;;;7.39;73.06;94952.56;5111319;28;20031;-73
2021/10/22 00:16:58;;;;;;;14.32;8.98;;;;;;;7.47;73.38;94974.50;5109908;28;20035;-72
2021/10/22 00:19:23;;;;;;;17.00;9.68;;;;;;;7.47;73.13;94979.66;5093070;28;20031;-72
2021/10/22 00:21:48;;;;;;;13.00;8.50;;;;;;;7.47;73.22;94979.66;5117961;27;20035;-72
2021/10/22 00:24:14;;;;;;;14.00;8.88;;;;;;;7.45;73.08;94981.53;5131838;27;20015;-72
2021/10/22 00:26:39;;;;;;;15.52;9.52;;;;;;;7.43;73.00;94971.28;5130249;28;20058;-72
2021/10/22 00:29:05;;;;;;;13.35;8.77;;;;;;;7.45;73.22;94972.00;5118414;28;20027;-72
2021/10/22 00:31:30;;;;;;;13.60;9.45;;;;;;;7.46;73.01;94972.81;5092910;28;20060;-72
2021/10/22 00:33:56;;;;;;;15.27;8.70;;;;;;;7.48;73.02;94974.38;5119997;28;20069;-72
2021/10/22 00:36:21;;;;;;;14.00;9.10;;;;;;;7.52;73.28;94977.56;5112284;28;20092;-72
2021/10/22 00:38:47;;;;;;;13.80;8.95;;;;;;;7.53;73.12;94972.31;5109772;28;20035;-72
2021/10/22 00:41:13;;;;;;;13.35;8.80;;;;;;;7.53;72.87;94967.13;5093111;28;20028;-72
2021/10/22 00:43:39;;;;;;;12.60;8.40;;;;;;;7.65;72.97;94967.22;5110196;28;20032;-72
2021/10/22 00:46:04;;;;;;;14.02;9.13;;;;;;;7.67;72.73;94967.97;5111397;28;20465;-73
2021/10/22 00:48:30;;;;;;;12.85;8.60;;;;;;;7.62;72.88;94947.59;5116062;28;20061;-72
2021/10/22 00:50:57;;;;;;;14.10;8.77;;;;;;;7.71;72.50;94966.81;5130404;28;20043;-73
2021/10/22 00:53:24;;;;;;;11.70;8.05;;;;;;;7.69;72.58;94964.34;5104563;28;20035;-72
2021/10/22 00:55:50;;;;;;;13.50;8.43;;;;;;;7.75;72.67;94963.09;5076066;28;20467;-72
2021/10/22 00:58:16;;;;;;;15.18;8.50;;;;;;;7.74;72.62;94961.41;5112868;28;20428;-72
2021/10/22 01:00:41;;;;;;;15.68;8.82;;;;;;;7.80;72.50;94972.19;5109006;28;20043;-72
2021/10/22 01:03:07;;;;;;;13.60;8.68;;;;;;;7.77;72.33;94966.38;5111455;28;20085;-72
2021/10/22 01:05:33;;;;;;;13.85;8.82;;;;;;;7.82;72.27;94967.72;5130153;28;20015;-72
2021/10/22 01:07:58;;;;;;;11.23;7.72;;;;;;;7.76;72.19;94955.22;5093149;28;20039;-72
2021/10/22 01:10:23;;;;;;;12.48;8.63;;;;;;;7.90;72.11;94971.53;5102079;28;20450;-72
2021/10/22 01:12:49;;;;;;;12.85;8.98;;;;;;;7.74;72.20;94951.06;5113260;28;20023;-72
2021/10/22 01:15:14;;;;;;;13.05;8.68;;;;;;;7.85;72.26;94966.66;5129832;28;20477;-72
2021/10/22 01:17:41;;;;;;;13.77;8.32;;;;;;;7.89;72.20;94967.31;5129838;27;20035;-73
2021/10/22 01:20:09;;;;;;;12.48;8.57;;;;;;;7.93;72.08;94972.13;5130236;28;20030;-73
2021/10/22 01:22:35;;;;;;;14.57;8.20;;;;;;;7.90;71.90;94977.53;5095934;28;20063;-72
2021/10/22 01:25:01;;;;;;;12.48;7.97;;;;;;;7.82;71.75;94979.81;5112761;28;20481;-72
2021/10/22 01:27:27;;;;;;;12.10;8.02;;;;;;;7.67;71.79;94962.78;5131748;27;20031;-73
2021/10/22 01:29:52;;;;;;;15.25;9.05;;;;;;;7.71;72.05;94971.97;5114717;27;20028;-72
2021/10/22 01:32:18;;;;;;;12.60;8.93;;;;;;;7.76;72.13;94982.84;5103306;28;20043;-72
2021/10/22 01:34:44;;;;;;;13.55;8.43;;;;;;;7.75;71.99;94986.38;5095484;28;20046;-72
2021/10/22 01:37:10;;;;;;;12.25;8.35;;;;;;;7.74;71.99;94982.09;5102418;28;20163;-72
2021/10/22 01:39:35;;;;;;;11.32;8.27;;;;;;;7.60;72.18;94963.22;5096807;28;20045;-73
2021/10/22 01:42:01;;;;;;;12.02;7.90;;;;;;;7.72;71.90;94984.00;5094678;28;20035;-72
2021/10/22 01:44:27;;;;;;;14.10;9.05;;;;;;;7.70;72.02;94983.25;5113210;28;20405;-73
2021/10/22 01:46:54;;;;;;;12.25;8.40;;;;;;;7.67;72.10;94975.72;5114288;28;20382;-72
2021/10/22 01:49:19;;;;;;;12.95;8.38;;;;;;;7.60;72.35;94975.28;5112057;28;20497;-72
2021/10/22 01:51:45;;;;;;;15.63;8.90;;;;;;;7.60;72.29;94978.72;5095253;28;20044;-72
2021/10/22 01:54:11;;;;;;;14.60;9.70;;;;;;;7.64;72.27;94983.69;5093649;28;20440;-72
2021/10/22 01:56:36;;;;;;;13.90;8.88;;;;;;;7.61;72.51;94979.56;5092410;28;20163;-72
2021/10/22 01:59:02;;;;;;;12.85;8.60;;;;;;;7.48;72.44;94974.38;5092512;28;20036;-72
2021/10/22 02:01:27;;;;;;;11.18;7.40;;;;;;;7.52;72.49;94978.44;5075621;28;20032;-72
2021/10/22 02:03:53;;;;;;;11.93;8.05;;;;;;;7.53;72.54;94974.06;5102024;28;20060;-72
2021/10/22 02:06:18;;;;;;;14.27;8.88;;;;;;;7.51;72.62;94976.75;5095722;28;20032;-72
2021/10/22 02:08:43;;;;;;;12.15;7.80;;;;;;;7.56;72.75;94987.59;5106351;28;20035;-72
2021/10/22 02:11:09;;;;;;;11.77;8.68;;;;;;;7.53;72.55;94987.81;5093340;28;20081;-72
2021/10/22 02:13:35;;;;;;;11.55;8.15;;;;;;;7.53;72.63;94984.41;5097832;28;20036;-72
2021/10/22 02:16:00;;;;;;;13.15;8.48;;;;;;;7.53;72.43;94971.50;5077725;28;20036;-72
2021/10/22 02:18:26;;;;;;;13.02;8.85;;;;;;;7.57;72.38;94986.66;5075000;28;20516;-72
2021/10/22 02:20:51;;;;;;;12.00;8.55;;;;;;;7.55;72.50;94988.56;5075016;28;20028;-72
2021/10/22 02:23:17;;;;;;;12.73;8.52;;;;;;;7.50;72.67;94990.63;5091695;28;20043;-73
2021/10/22 02:25:43;;;;;;;14.05;9.40;;;;;;;7.54;72.68;94993.81;5093118;28;20039;-72
2021/10/22 02:28:09;;;;;;;12.30;8.15;;;;;;;7.58;72.60;94990.09;5092062;28;20297;-72
2021/10/22 02:30:34;;;;;;;13.30;8.65;;;;;;;7.50;72.33;94975.09;5093274;28;20042;-72
2021/10/22 02:33:00;;;;;;;14.25;9.43;;;;;;;7.45;72.39;94974.59;5096774;28;20492;-72
2021/10/22 02:35:25;;;;;;;13.77;9.40;;;;;;;7.53;72.90;95003.34;5094547;28;20024;-72
2021/10/22 02:37:51;;;;;;;15.30;8.52;;;;;;;7.61;72.75;94998.47;5091958;28;20028;-72
2021/10/22 02:40:17;;;;;;;13.30;8.77;;;;;;;7.66;72.58;95005.06;5097377;28;20028;-72
2021/10/22 02:42:42;;;;;;;14.02;8.70;;;;;;;7.54;72.55;94993.81;5094843;28;20035;-72
2021/10/22 02:45:08;;;;;;;13.52;9.25;;;;;;;7.64;72.65;95010.38;5112747;28;20088;-72
2021/10/22 02:47:33;;;;;;;13.02;9.02;;;;;;;7.66;72.59;95015.41;5094578;28;20051;-72
2021/10/22 02:49:59;;;;;;;12.30;8.27;;;;;;;7.63;72.79;95006.09;5111996;28;20028;-74
2021/10/22 02:52:24;;;;;;;13.00;8.82;;;;;;;7.67;72.40;95022.25;5078318;28;20063;-72
2021/10/22 02:54:50;;;;;;;12.32;8.82;;;;;;;7.65;72.47;95019.75;5095369;28;20089;-72
2021/10/22 02:57:15;;;;;;;11.63;7.75;;;;;;;7.69;72.48;95021.22;5091734;28;20093;-72
2021/10/22 02:59:40;;;;;;;14.80;9.25;;;;;;;7.65;72.56;95024.94;5093427;28;20028;-72
2021/10/22 03:02:06;;;;;;;14.68;8.65;;;;;;;7.66;72.25;95033.50;5093145;28;20047;-72
2021/10/22 03:04:31;;;;;;;14.55;9.00;;;;;;;7.65;72.24;95030.09;5091281;28;20515;-72
2021/10/22 03:06:57;;;;;;;13.63;9.23;;;;;;;7.64;72.35;95027.66;5091652;28;20036;-72
2021/10/22 03:09:22;;;;;;;12.07;8.73;;;;;;;7.65;72.04;95034.47;5092451;28;20451;-72
2021/10/22 03:11:48;;;;;;;12.40;8.07;;;;;;;7.59;72.23;95033.94;5091387;28;20498;-72
2021/10/22 03:14:13;;;;;;;14.43;8.85;;;;;;;7.65;72.35;95044.81;5074481;28;20087;-72
2021/10/22 03:16:38;;;;;;;13.93;8.57;;;;;;;7.60;72.35;95047.69;5091057;28;20093;-72
2021/10/22 03:19:04;;;;;;;13.48;8.75;;;;;;;7.57;72.23;95051.31;5091984;28;20032;-72
2021/10/22 03:21:29;;;;;;;15.65;10.30;;;;;;;7.61;72.29;95052.78;5074100;28;20024;-72
2021/10/22 03:23:56;;;;;;;13.68;9.38;;;;;;;7.56;72.41;95048.84;5074468;28;20090;-72
2021/10/22 03:26:22;;;;;;;14.52;8.77;;;;;;;7.59;72.45;95057.22;5099823;28;20375;-72
2021/10/22 03:28:48;;;;;;;14.48;9.25;;;;;;;7.60;72.52;95043.38;5097034;28;20118;-73
2021/10/22 03:31:13;;;;;;;14.13;8.73;;;;;;;7.54;72.59;95036.00;5110412;28;20112;-73
2021/10/22 03:33:39;;;;;;;14.93;9.30;;;;;;;7.53;72.75;95042.13;5111420;28;20028;-72
2021/10/22 03:36:04;;;;;;;15.95;9.27;;;;;;;7.52;72.72;95043.06;5123445;27;20035;-72
2021/10/22 03:38:30;;;;;;;16.00;10.15;;;;;;;7.51;72.68;95038.78;5132908;27;20356;-72
2021/10/22 03:40:55;;;;;;;13.98;9.60;;;;;;;7.63;72.69;95052.66;5128188;27;20032;-73
2021/10/22 03:43:20;;;;;;;12.98;8.70;;;;;;;7.56;72.79;95047.06;5131733;27;20027;-72
2021/10/22 03:45:47;;;;;;;13.25;9.55;;;;;;;7.53;72.64;95052.44;5114472;27;20030;-71
2021/10/22 03:48:13;;;;;;;15.02;9.52;;;;;;;7.50;72.76;95047.50;5123542;27;20028;-72
2021/10/22 03:50:38;;;;;;;14.73;9.88;;;;;;;7.51;72.74;95048.31;5127404;27;20081;-72
2021/10/22 03:53:04;;;;;;;15.05;9.05;;;;;;;7.50;72.95;95044.91;5126321;27;20420;-72
2021/10/22 03:55:29;;;;;;;14.57;9.75;;;;;;;7.50;72.91;95051.84;5122042;27;20089;-72
2021/10/22 03:57:55;;;;;;;16.17;10.25;;;;;;;7.48;73.40;95049.34;5111051;27;20022;-72
2021/10/22 04:00:20;;;;;;;13.18;9.20;;;;;;;7.42;73.21;95026.50;5130465;27;20034;-72
2021/10/22 04:02:46;;;;;;;16.35;10.25;;;;;;;7.43;72.96;95027.31;5129668;27;20033;-72
2021/10/22 04:05:11;;;;;;;18.50;10.60;;;;;;;7.53;73.05;95056.81;5130842;27;20539;-72
2021/10/22 04:07:37;;;;;;;14.73;10.07;;;;;;;7.54;72.95;95061.03;5132190;27;20026;-73
2021/10/22 04:10:04;;;;;;;14.35;9.90;;;;;;;7.56;73.03;95052.25;5128920;27;20027;-74
2021/10/22 04:12:30;;;;;;;17.13;10.10;;;;;;;7.66;72.90;95059.38;5112037;27;20027;-72
2021/10/22 04:14:55;;;;;;;15.10;9.80;;;;;;;7.67;72.59;95051.53;5130375;27;20034;-72
2021/10/22 04:17:20;;;;;;;15.52;9.98;;;;;;;7.63;72.96;95042.31;5113582;27;20036;-72
2021/10/22 04:19:46;;;;;;;15.82;10.45;;;;;;;7.80;72.73;95044.59;5110401;27;20614;-72
2021/10/22 04:22:12;;;;;;;14.15;9.98;;;;;;;7.83;72.78;95049.56;5127977;27;20039;-72
2021/10/22 04:24:38;;;;;;;14.38;9.50;;;;;;;7.88;72.27;95044.06;5113800;28;20023;-72
2021/10/22 04:27:03;;;;;;;14.80;10.15;;;;;;;7.86;72.05;95038.19;5113859;28;20034;-72
2021/10/22 04:29:29;;;;;;;15.75;10.50;;;;;;;7.79;72.01;95040.34;5131228;28;20072;-73
2021/10/22 04:31:54;;;;;;;15.13;10.20;;;;;;;7.86;72.03;95040.75;5130917;28;20039;-72
2021/10/22 04:34:20;;;;;;;19.00;11.05;;;;;;;7.83;72.24;95030.63;5130857;28;20424;-72
2021/10/22 04:36:47;;;;;;;18.55;11.40;;;;;;;7.74;72.37;95023.47;5130638;28;20533;-73
2021/10/22 04:41:56;;;;;;;14.63;10.65;;;;;;;7.60;72.53;95021.84;5132317;28;20046;-71
2021/10/22 04:44:24;;;;;;;16.10;10.55;;;;;;;7.73;72.23;95039.94;5113875;28;20412;-72
2021/10/22 04:46:49;;;;;;;16.15;10.15;;;;;;;7.66;72.44;95036.97;5110278;28;20114;-72
2021/10/22 04:49:15;;;;;;;15.48;10.88;;;;;;;7.65;72.68;95034.47;5096672;28;20027;-71
2021/10/22 04:51:40;;;;;;;19.52;11.82;;;;;;;7.51;72.49;95028.44;5094873;28;20034;-73
2021/10/22 04:54:06;;;;;;;21.17;12.23;;;;;;;7.46;72.37;95035.69;5111360;28;20050;-70
2021/10/22 04:56:31;;;;;;;17.38;10.80;;;;;;;7.42;72.29;95048.94;5095185;28;20024;-70
2021/10/22 04:58:56;;;;;;;22.45;12.82;;;;;;;7.31;72.26;95052.22;5123116;27;20019;-70
2021/10/22 05:01:22;;;;;;;19.70;12.20;;;;;;;7.25;72.57;95050.06;5131558;27;20408;-71
2021/10/22 05:03:48;;;;;;;15.68;10.23;;;;;;;7.24;73.00;95048.38;5132489;27;20473;-70
2021/10/22 05:06:13;;;;;;;14.00;9.38;;;;;;;7.29;72.87;95048.91;5135518;27;20035;-71
2021/10/22 05:08:39;;;;;;;16.08;9.77;;;;;;;7.31;73.16;95058.22;5134230;27;20445;-71
2021/10/22 05:11:05;;;;;;;13.65;10.50;;;;;;;7.34;72.98;95059.78;5128799;27;20027;-71
2021/10/22 05:13:30;;;;;;;15.35;9.23;;;;;;;7.37;72.80;95052.63;5125659;27;20081;-70
2021/10/22 05:15:56;;;;;;;13.02;9.15;;;;;;;7.47;72.53;95058.03;5110491;27;20088;-72
2021/10/22 05:18:21;;;;;;;14.68;9.93;;;;;;;7.51;72.60;95054.31;5127726;27;20023;-73
2021/10/22 05:20:47;;;;;;;13.18;8.82;;;;;;;7.45;72.56;95049.56;5091038;27;20427;-70
2021/10/22 05:23:12;;;;;;;16.90;10.77;;;;;;;7.47;72.43;95070.97;5120180;27;20450;-70
2021/10/22 05:25:38;;;;;;;25.15;14.52;;;;;;;7.36;72.22;95070.84;5098739;27;20422;-69
2021/10/22 05:28:03;;;;;;;44.28;24.30;;;;;;;7.30;72.13;95068.66;5120305;27;20028;-69
2021/10/22 05:30:29;;;;;;;42.88;23.55;;;;;;;7.23;72.33;95081.16;5125444;27;20033;-70
2021/10/22 05:32:54;;;;;;;45.67;24.35;;;;;;;7.19;72.05;95078.84;5105777;27;20127;-69
2021/10/22 05:35:20;;;;;;;37.53;20.98;;;;;;;7.05;72.22;95083.19;5113144;28;20530;-69
2021/10/22 05:37:45;;;;;;;30.75;17.65;;;;;;;6.85;72.22;95078.44;5112659;28;20031;-69
2021/10/22 05:40:11;;;;;;;25.30;14.60;;;;;;;6.88;72.64;95083.41;5112751;28;20024;-69
2021/10/22 05:42:36;;;;;;;22.45;14.70;;;;;;;6.87;72.68;95086.94;5104131;28;20043;-70
2021/10/22 05:45:03;;;;;;;23.92;15.32;;;;;;;6.92;72.89;95113.31;5092586;28;20481;-70
2021/10/22 05:47:28;;;;;;;21.20;13.93;;;;;;;6.95;73.19;95113.09;5076092;28;20020;-70
2021/10/22 05:49:54;;;;;;;24.52;15.32;;;;;;;6.92;73.29;95108.97;5109328;28;20035;-69
2021/10/22 05:52:19;;;;;;;23.35;15.20;;;;;;;6.96;73.45;95121.69;5096057;28;20036;-69
2021/10/22 05:54:45;;;;;;;24.45;15.52;;;;;;;6.91;73.46;95122.00;5076714;28;20020;-69
2021/10/22 05:57:10;;;;;;;23.33;14.43;;;;;;;6.83;73.56;95113.91;5093231;28;20040;-69
2021/10/22 05:59:35;;;;;;;19.92;12.50;;;;;;;6.90;73.87;95130.66;5092084;28;20028;-69
2021/10/22 06:02:01;;;;;;;17.73;11.32;;;;;;;6.95;73.65;95133.78;5094234;28;20058;-69
2021/10/22 06:04:26;;;;;;;16.45;11.52;;;;;;;6.91;73.90;95129.75;5109712;28;20032;-69
2021/10/22 06:06:52;;;;;;;17.70;10.95;;;;;;;6.97;73.77;95133.69;5112546;28;20047;-69
2021/10/22 06:09:17;;;;;;;18.25;10.60;;;;;;;6.96;73.64;95137.19;5095540;28;20023;-69
2021/10/22 06:11:43;;;;;;;16.33;10.77;;;;;;;6.96;73.93;95148.34;5095342;28;20031;-69
2021/10/22 06:14:08;;;;;;;19.27;11.10;;;;;;;6.97;73.81;95147.44;5112228;28;20043;-69
2021/10/22 06:16:34;;;;;;;23.52;11.98;;;;;;;6.96;74.28;95140.59;5112052;28;20463;-69
2021/10/22 06:19:02;;;;;;;17.90;10.30;;;;;;;6.91;74.06;95134.91;5113536;28;20035;-69
2021/10/22 06:21:40;;;;;;;16.27;9.77;;;;;;;6.99;74.30;95136.97;5112189;28;20032;-69
2021/10/22 06:24:06;;;;;;;21.83;12.57;;;;;;;7.78;81.49;95154.25;5112255;28;20403;-69
2021/10/22 06:26:33;;;;;;;40.20;16.95;;;;;;;8.76;86.14;95147.56;5112089;28;20088;-69
2021/10/22 06:28:59;;;;;;;39.25;19.25;;;;;;;9.64;86.62;95134.34;5112084;28;20034;-69
2021/10/22 06:31:25;;;;;;;35.60;20.10;;;;;;;10.65;85.99;95136.22;5117094;27;20043;-69
2021/10/22 06:33:51;;;;;;;34.47;20.38;;;;;;;11.65;85.41;95152.50;5132533;27;20492;-69
2021/10/22 06:36:16;;;;;;;19.08;13.13;;;;;;;12.27;83.72;95154.31;5132559;27;20035;-69
2021/10/22 06:38:42;;;;;;;19.25;12.93;;;;;;;12.67;81.59;95126.63;5115359;27;20027;-69
2021/10/22 06:41:08;;;;;;;17.33;12.77;;;;;;;13.41;76.01;95153.19;5115281;27;20092;-69
2021/10/22 06:43:34;;;;;;;17.75;12.93;;;;;;;13.99;73.33;95152.34;5115316;27;20516;-70
2021/10/22 06:45:59;;;;;;;21.45;14.63;;;;;;;14.50;70.23;95152.91;5132364;27;20045;-69
2021/10/22 06:48:25;;;;;;;17.75;10.63;;;;;;;14.89;66.21;95158.84;5121605;27;20027;-70
2021/10/22 06:50:50;;;;;;;23.60;17.35;;;;;;;14.87;59.63;95165.19;5125704;27;20476;-70
2021/10/22 06:53:16;;;;;;;25.92;16.60;;;;;;;14.68;60.70;95166.94;5118437;27;20497;-70
2021/10/22 06:55:41;;;;;;;17.75;12.38;;;;;;;14.72;59.07;95165.66;5111502;28;20115;-70
2021/10/22 06:58:07;;;;;;;16.67;13.13;;;;;;;14.80;57.81;95178.03;5111588;28;20035;-70
2021/10/22 07:00:33;;;;;;;21.08;13.88;;;;;;;15.00;59.22;95176.13;5112717;28;20435;-70
2021/10/22 07:02:58;;;;;;;25.23;15.40;;;;;;;15.11;57.87;95173.34;5111328;28;20063;-70
2021/10/22 07:07:51;;;;;;;24.42;17.13;;;;;;;14.73;53.65;95171.72;5111626;28;20424;-70
2021/10/22 07:10:16;;;;;;;14.68;11.52;;;;;;;14.67;54.49;95174.91;5112474;28;20023;-70
2021/10/22 07:12:42;;;;;;;17.58;13.43;;;;;;;14.65;54.86;95175.03;5111158;28;20039;-70
2021/10/22 07:15:08;;;;;;;20.08;11.70;;;;;;;14.60;56.04;95150.28;5111258;28;20016;-70
2021/10/22 07:17:33;;;;;;;19.70;13.63;;;;;;;14.85;55.45;95174.97;5111242;28;20036;-70
2021/10/22 07:19:59;;;;;;;20.42;15.15;;;;;;;14.85;53.95;95175.81;5112359;28;20028;-70
2021/10/22 07:22:31;;;;;;;20.13;15.00;;;;;;;14.96;54.62;95174.81;5111138;28;20028;-70
2021/10/22 07:24:56;;;;;;;20.77;15.35;;;;;;;14.94;53.19;95176.72;5111248;28;20042;-70
2021/10/22 07:27:21;;;;;;;23.45;15.60;;;;;;;14.91;53.39;95177.84;5111871;28;20036;-70
2021/10/22 07:29:47;;;;;;;19.90;13.52;;;;;;;14.88;53.28;95172.91;5110987;28;20440;-70
2021/10/22 07:32:13;;;;;;;19.92;14.88;;;;;;;14.76;53.02;95176.66;5112067;27;20052;-69
2021/10/22 07:34:38;;;;;;;22.08;14.18;;;;;;;14.66;53.98;95179.31;5093885;28;20020;-70
2021/10/22 07:37:04;;;;;;;22.85;14.27;;;;;;;14.67;55.16;95156.59;5093853;28;20042;-70
2021/10/22 07:39:29;;;;;;;21.85;14.68;;;;;;;14.67;54.87;95157.41;5112002;28;20035;-70
2021/10/22 07:41:55;;;;;;;21.58;16.02;;;;;;;14.92;54.80;95171.63;5093776;28;20489;-70
2021/10/22 07:44:20;;;;;;;25.73;16.90;;;;;;;14.91;52.03;95171.78;5093759;28;20034;-70
2021/10/22 07:46:46;;;;;;;20.60;15.18;;;;;;;14.84;53.44;95163.69;5093710;28;20500;-69
2021/10/22 07:49:12;;;;;;;21.35;15.55;;;;;;;15.00;54.08;95170.91;5093690;28;20057;-70
2021/10/22 07:51:37;;;;;;;22.73;15.50;;;;;;;15.06;53.27;95178.16;5110618;28;20092;-70
2021/10/22 07:54:03;;;;;;;19.73;14.13;;;;;;;15.13;53.07;95174.00;5110509;28;20020;-70
2021/10/22 07:56:29;;;;;;;22.92;14.45;;;;;;;15.22;52.47;95168.88;5093403;28;20040;-69
2021/10/22 07:58:54;;;;;;;19.83;14.60;;;;;;;15.19;51.87;95168.19;5110339;28;20501;-69
2021/10/22 08:01:20;;;;;;;20.92;13.98;;;;;;;15.07;52.55;95166.75;5111615;28;20035;-70
2021/10/22 08:03:46;;;;;;;22.80;15.63;;;;;;;15.03;52.76;95168.00;5110372;28;20420;-71
2021/10/22 08:06:14;;;;;;;21.10;13.88;;;;;;;15.07;53.28;95165.91;5093490;28;20058;-69
2021/10/22 08:08:43;;;;;;;18.30;14.32;;;;;;;14.97;53.29;95172.03;5111456;28;20103;-70
2021/10/22 08:11:08;;;;;;;23.52;14.60;;;;;;;14.96;53.23;95174.81;5110134;28;20043;-69
2021/10/22 08:13:34;;;;;;;22.17;14.40;;;;;;;14.89;53.01;95171.91;5110273;28;20390;-69
2021/10/22 08:16:00;;;;;;;24.83;16.02;;;;;;;14.87;53.23;95170.41;5111316;28;20031;-69
2021/10/22 08:18:26;;;;;;;20.90;15.05;;;;;;;14.85;53.53;95172.34;5110231;28;20020;-70
2021/10/22 08:20:56;;;;;;;21.70;15.15;;;;;;;14.82;53.52;95172.63;5076483;28;20035;-69
2021/10/22 08:23:22;;;;;;;20.97;14.90;;;;;;;14.83;53.79;95174.31;5093730;28;20035;-70
2021/10/22 08:25:47;;;;;;;21.42;15.45;;;;;;;14.82;54.13;95170.88;5111128;28;20035;-69
2021/10/22 08:28:13;;;;;;;20.50;14.20;;;;;;;14.74;53.75;95163.75;5110049;28;20028;-69
2021/10/22 08:30:38;;;;;;;21.33;15.35;;;;;;;14.73;54.22;95172.53;5111104;28;20115;-70
2021/10/22 08:33:04;;;;;;;22.25;14.90;;;;;;;14.77;54.10;95180.94;5093122;28;20112;-69
2021/10/22 08:35:29;;;;;;;26.20;19.63;;;;;;;14.57;54.90;95169.72;5094046;27;20027;-69
2021/10/22 08:37:55;;;;;;;23.10;15.40;;;;;;;14.58;54.95;95176.59;5109994;28;20023;-69
2021/10/22 08:40:21;;;;;;;20.27;13.75;;;;;;;14.61;54.71;95183.31;5097220;28;20394;-69
2021/10/22 08:42:48;;;;;;;23.08;16.27;;;;;;;14.59;54.74;95173.00;5111742;27;20431;-69
2021/10/22 08:45:14;;;;;;;22.77;13.95;;;;;;;14.66;54.82;95175.88;5097215;28;20558;-69
2021/10/22 08:47:39;;;;;;;25.15;15.93;;;;;;;14.61;54.83;95159.78;5113954;28;20054;-69
2021/10/22 08:50:10;;;;;;;23.73;16.17;;;;;;;14.71;54.95;95176.28;5097052;28;20409;-70
2021/10/22 08:52:36;;;;;;;;;;;;;;;14.72;54.88;95178.75;5097902;28;20043;-70
2021/10/22 08:55:02;;;;;;;22.88;14.82;;;;;;;14.72;55.08;95181.34;5121441;27;19919;-69
2021/10/22 08:57:28;;;;;;;17.95;13.02;;;;;;;14.73;54.79;95169.91;5134593;27;20027;-69
2021/10/22 08:59:57;;;;;;;20.05;13.30;;;;;;;14.82;54.68;95178.72;5135608;27;20425;-70
2021/10/22 09:02:25;;;;;;;17.40;12.40;;;;;;;14.87;54.50;95175.66;5117584;27;20531;-70
2021/10/22 09:04:51;;;;;;;23.23;15.07;;;;;;;14.91;54.53;95177.03;5117529;27;20062;-68
2021/10/22 09:07:18;;;;;;;18.08;12.05;;;;;;;14.91;54.46;95175.22;5126206;27;20058;-67
2021/10/22 09:09:47;;;;;;;17.17;13.00;;;;;;;14.93;54.30;95180.28;5124237;27;20091;-66
2021/10/22 09:12:12;;;;;;;18.10;12.20;;;;;;;14.96;54.51;95178.22;5134208;27;20031;-66
2021/10/22 09:14:41;;;;;;;21.17;13.73;;;;;;;14.97;54.39;95179.88;5112582;27;20031;-69
2021/10/22 09:17:13;;;;;;;16.95;11.43;;;;;;;15.01;54.44;95167.31;5116262;27;20046;-68
2021/10/22 09:19:41;;;;;;;21.92;13.70;;;;;;;15.03;54.53;95164.56;5132661;27;20024;-69
2021/10/22 09:22:23;;;;;;;17.00;11.20;;;;;;;15.10;54.39;95160.38;5133958;27;20066;-69
2021/10/22 09:24:52;;;;;;;17.00;11.60;;;;;;;15.11;53.98;95162.88;5133971;27;20019;-69
2021/10/22 09:27:33;;;;;;;14.85;11.57;;;;;;;15.16;53.66;95158.03;5133881;27;20046;-69
2021/10/22 09:29:59;;;;;;;17.67;12.88;;;;;;;15.09;53.63;95137.81;5135029;27;20023;-68
2021/10/22 09:32:25;;;;;;;17.88;12.18;;;;;;;15.23;53.45;95160.88;5116604;27;20111;-68
2021/10/22 09:34:51;;;;;;;18.02;11.70;;;;;;;15.29;53.55;95152.41;5133665;27;20113;-68
2021/10/22 09:37:16;;;;;;;18.02;12.57;;;;;;;15.37;53.60;95151.69;5135208;27;20114;-69
2021/10/22 09:39:42;;;;;;;18.00;11.65;;;;;;;15.47;53.44;95156.88;5116413;27;20147;-68
2021/10/22 09:42:12;;;;;;;17.73;11.57;;;;;;;15.52;53.04;95154.63;5099421;27;20035;-68
2021/10/22 09:44:39;;;;;;;19.85;13.70;;;;;;;15.58;52.62;95149.63;5133900;27;20385;-69
2021/10/22 09:47:04;;;;;;;15.70;11.15;;;;;;;15.63;52.88;95147.38;5133514;27;20050;-69
2021/10/22 09:49:37;;;;;;;18.38;10.70;;;;;;;15.70;52.60;95152.84;5133871;27;20023;-69
2021/10/22 09:52:03;;;;;;;20.25;12.15;;;;;;;15.82;52.58;95146.44;5134444;27;20035;-68
2021/10/22 09:54:32;;;;;;;16.25;12.52;;;;;;;15.98;52.75;95150.13;5116368;27;20031;-69
2021/10/22 09:57:04;;;;;;;18.08;11.35;;;;;;;16.06;52.66;95143.16;5134802;27;20113;-69
2021/10/22 09:59:29;;;;;;;16.33;10.63;;;;;;;16.11;52.20;95140.09;5133226;27;20302;-69
2021/10/22 10:01:55;;;;;;;14.25;10.90;;;;;;;16.19;52.17;95147.19;5134637;27;20039;-68
2021/10/22 10:04:22;;;;;;;15.35;10.30;;;;;;;16.24;51.99;95137.91;5134362;27;20019;-69
2021/10/22 10:06:48;;;;;;;16.65;11.07;;;;;;;16.32;51.84;95139.72;5116158;27;20590;-69
2021/10/22 10:09:13;;;;;;;16.40;11.10;;;;;;;16.40;51.91;95139.78;5133080;27;20060;-69
2021/10/22 10:11:40;;;;;;;15.98;10.88;;;;;;;16.39;51.48;95126.84;5133002;27;20036;-69
2021/10/22 10:14:06;;;;;;;13.68;10.13;;;;;;;16.41;51.68;95125.72;5132955;27;20023;-69
2021/10/22 10:16:32;;;;;;;14.98;9.95;;;;;;;16.42;51.32;95123.91;5115900;27;20449;-69
2021/10/22 10:19:09;;;;;;;14.30;9.82;;;;;;;16.36;51.09;95116.66;5130129;27;20047;-69
2021/10/22 10:21:43;;;;;;;14.23;9.90;;;;;;;16.41;51.42;95125.72;5108235;27;20035;-68
2021/10/22 10:24:09;;;;;;;13.88;9.10;;;;;;;16.39;51.60;95118.97;5131437;27;20031;-69
2021/10/22 10:26:35;;;;;;;19.20;11.02;;;;;;;16.38;51.70;95120.78;5131257;27;20119;-68
2021/10/22 10:29:03;;;;;;;16.65;9.88;;;;;;;16.39;52.09;95117.16;5131420;27;20031;-70
2021/10/22 10:31:42;;;;;;;16.17;11.20;;;;;;;16.43;52.11;95115.06;5114258;27;20138;-68
2021/10/22 10:34:26;;;;;;;18.08;12.88;;;;;;;16.42;51.79;95105.56;5133926;27;20071;-69
2021/10/22 10:36:52;;;;;;;14.85;11.38;;;;;;;16.48;52.02;95113.59;5132443;27;20027;-68
2021/10/22 10:39:46;;;;;;;17.00;11.50;;;;;;;16.54;50.67;95105.09;5115542;27;20027;-69
2021/10/22 10:42:30;;;;;;;20.15;12.35;;;;;;;16.63;49.43;95107.78;5133908;27;20031;-68
2021/10/22 10:45:21;;;;;;;15.35;11.40;;;;;;;16.69;49.99;95096.69;5133635;27;20049;-69
2021/10/22 10:48:20;;;;;;;14.85;10.10;;;;;;;16.68;49.68;95102.88;5132338;27;20031;-69
2021/10/22 10:51:04;;;;;;;18.33;10.05;;;;;;;16.72;49.72;95099.78;5120980;27;20531;-68
2021/10/22 10:53:47;;;;;;;16.30;11.68;;;;;;;16.85;49.67;95090.69;5116380;27;20047;-68
2021/10/22 10:56:19;;;;;;;16.27;11.10;;;;;;;16.90;49.21;95083.97;5132103;27;20042;-69
2021/10/22 10:58:45;;;;;;;20.05;12.85;;;;;;;16.74;49.02;95063.75;5133621;27;20027;-68
2021/10/22 11:01:28;;;;;;;16.20;11.65;;;;;;;16.96;49.02;95078.09;5131049;27;20019;-68
2021/10/22 11:03:54;;;;;;;19.85;12.32;;;;;;;17.01;49.04;95076.81;5133152;27;20063;-69
2021/10/22 11:06:44;;;;;;;23.95;16.15;;;;;;;17.09;49.42;95066.31;5114744;27;20025;-69
2021/10/22 11:09:14;;;;;;;22.70;15.68;;;;;;;17.16;49.42;95064.69;5132089;27;20472;-69
2021/10/22 11:11:40;;;;;;;21.85;16.20;;;;;;;17.19;49.24;95046.81;5132004;27;20031;-68
2021/10/22 11:14:06;;;;;;;20.48;12.88;;;;;;;17.33;49.15;95048.00;5133012;27;20084;-68
2021/10/22 11:16:53;;;;;;;17.05;11.25;;;;;;;17.43;49.19;95059.13;5131674;27;20076;-69
2021/10/22 11:19:33;;;;;;;15.00;11.30;;;;;;;17.52;48.66;95051.28;5131755;27;20114;-69
2021/10/22 11:22:04;;;;;;;19.98;13.52;;;;;;;17.52;48.28;95040.75;5131692;27;20054;-69
2021/10/22 11:24:31;;;;;;;18.38;12.73;;;;;;;17.55;48.48;95040.44;5114426;27;20058;-69
2021/10/22 11:27:05;;;;;;;19.08;13.18;;;;;;;17.63;48.38;95037.81;5131535;27;20024;-69
2021/10/22 11:29:32;;;;;;;18.40;12.60;;;;;;;17.73;48.19;95037.66;5131553;27;20042;-68